createdAt,value
2022-12-05T00:00:38.078Z,0.00
2022-12-05T00:01:37.903Z,0.00
2022-12-05T00:02:37.873Z,0.00
2022-12-05T00:03:37.822Z,0.00
2022-12-05T00:04:37.835Z,0.00
2022-12-05T00:05:37.746Z,0.00
2022-12-05T00:06:37.771Z,0.00
2022-12-05T00:07:37.746Z,0.00
2022-12-05T00:08:37.699Z,0.00
2022-12-05T00:09:37.693Z,0.00
2022-12-05T00:10:37.708Z,0.00
2022-12-05T00:11:37.755Z,0.00
2022-12-05T00:12:37.672Z,0.00
2022-12-05T00:13:37.658Z,0.00
2022-12-05T00:14:37.692Z,0.00
2022-12-05T00:15:37.915Z,0.00
2022-12-05T00:16:37.701Z,0.00
2022-12-05T00:17:38.436Z,0.00
2022-12-05T00:18:37.662Z,0.00
2022-12-05T00:19:37.591Z,0.00
2022-12-05T00:20:37.651Z,0.00
2022-12-05T00:21:37.576Z,0.00
2022-12-05T00:22:37.595Z,0.00
2022-12-05T00:23:37.559Z,0.00
2022-12-05T00:24:37.635Z,0.00
2022-12-05T00:25:37.520Z,0.00
2022-12-05T00:26:37.542Z,0.00
2022-12-05T00:27:37.539Z,0.00
2022-12-05T00:28:37.492Z,0.00
2022-12-05T00:29:37.586Z,0.00
2022-12-05T00:30:37.539Z,0.00
2022-12-05T00:31:37.528Z,0.00
2022-12-05T00:32:37.464Z,0.00
2022-12-05T00:33:37.471Z,0.00
2022-12-05T00:34:37.476Z,0.00
2022-12-05T00:35:37.454Z,0.00
2022-12-05T00:36:37.456Z,0.00
2022-12-05T00:37:37.723Z,0.00
2022-12-05T00:38:37.420Z,0.00
2022-12-05T00:39:37.391Z,0.00
2022-12-05T00:40:37.434Z,0.00
2022-12-05T00:41:37.409Z,0.00
2022-12-05T00:42:37.687Z,0.00
2022-12-05T00:43:37.400Z,0.00
2022-12-05T00:44:37.351Z,0.00
2022-12-05T00:45:37.394Z,0.00
2022-12-05T00:46:37.695Z,0.00
2022-12-05T00:47:37.317Z,0.00
2022-12-05T00:48:37.559Z,0.00
2022-12-05T00:49:37.305Z,0.00
2022-12-05T00:50:37.323Z,0.00
2022-12-05T00:51:37.286Z,0.00
2022-12-05T00:52:37.290Z,0.00
2022-12-05T00:53:37.320Z,0.00
2022-12-05T00:54:37.239Z,0.00
2022-12-05T00:55:37.222Z,0.00
2022-12-05T00:56:37.284Z,0.00
2022-12-05T00:57:37.295Z,0.00
2022-12-05T00:58:37.218Z,0.00
2022-12-05T00:59:37.222Z,0.00
2022-12-05T01:00:37.214Z,0.00
2022-12-05T01:01:37.290Z,0.00
2022-12-05T01:02:37.301Z,0.00
2022-12-05T01:03:37.229Z,0.00
2022-12-05T01:04:37.168Z,0.00
2022-12-05T01:05:37.128Z,0.00
2022-12-05T01:06:37.141Z,0.00
2022-12-05T01:07:37.200Z,0.00
2022-12-05T01:08:37.159Z,0.00
2022-12-05T01:09:37.105Z,0.00
2022-12-05T01:10:37.103Z,0.00
2022-12-05T01:11:41.280Z,0.00
2022-12-05T01:12:37.124Z,0.00
2022-12-05T01:13:37.042Z,0.00
2022-12-05T01:14:37.050Z,0.00
2022-12-05T01:15:37.044Z,0.00
2022-12-05T01:16:37.076Z,0.00
2022-12-05T01:17:37.314Z,0.00
2022-12-05T01:18:37.269Z,0.00
2022-12-05T01:19:37.000Z,0.00
2022-12-05T01:20:37.004Z,0.00
2022-12-05T01:21:37.032Z,0.00
2022-12-05T01:22:37.019Z,0.00
2022-12-05T01:23:37.217Z,0.00
2022-12-05T01:24:37.072Z,0.00
2022-12-05T01:25:36.931Z,0.00
2022-12-05T01:26:36.921Z,0.00
2022-12-05T01:27:36.941Z,0.00
2022-12-05T01:28:37.026Z,0.00
2022-12-05T01:29:36.907Z,0.00
2022-12-05T01:30:36.907Z,0.00
2022-12-05T01:31:36.962Z,0.00
2022-12-05T01:32:37.760Z,0.00
2022-12-05T01:33:36.872Z,0.00
2022-12-05T01:34:36.892Z,0.00
2022-12-05T01:35:36.918Z,0.00
2022-12-05T01:36:36.877Z,0.00
2022-12-05T01:37:37.590Z,0.00
2022-12-05T01:38:36.909Z,0.00
2022-12-05T01:39:36.837Z,0.00
2022-12-05T01:40:36.787Z,0.00
2022-12-05T01:41:36.812Z,0.00
2022-12-05T01:42:36.792Z,0.00
2022-12-05T01:43:36.760Z,0.00
2022-12-05T01:44:36.768Z,0.00
2022-12-05T01:45:36.803Z,0.00
2022-12-05T01:46:36.754Z,0.00
2022-12-05T01:47:36.745Z,0.00
2022-12-05T01:48:36.719Z,0.00
2022-12-05T01:49:36.742Z,0.00
2022-12-05T01:50:36.709Z,0.00
2022-12-05T01:51:36.679Z,0.00
2022-12-05T01:52:36.672Z,0.00
2022-12-05T01:53:36.733Z,0.00
2022-12-05T01:54:36.685Z,0.00
2022-12-05T01:55:36.639Z,0.00
2022-12-05T01:56:36.641Z,0.00
2022-12-05T01:57:36.639Z,0.00
2022-12-05T01:58:36.651Z,0.00
2022-12-05T01:59:37.123Z,0.00
2022-12-05T02:00:36.584Z,0.00
2022-12-05T02:01:36.649Z,0.00
2022-12-05T02:02:36.924Z,0.00
2022-12-05T02:03:36.575Z,0.00
2022-12-05T02:04:36.613Z,0.00
2022-12-05T02:05:36.534Z,0.00
2022-12-05T02:06:36.562Z,0.00
2022-12-05T02:07:36.613Z,0.00
2022-12-05T02:08:36.519Z,0.00
2022-12-05T02:09:36.561Z,0.00
2022-12-05T02:10:36.547Z,0.00
2022-12-05T02:11:36.580Z,0.00
2022-12-05T02:12:38.853Z,0.00
2022-12-05T02:13:36.630Z,0.00
2022-12-05T02:14:36.473Z,0.00
2022-12-05T02:15:36.461Z,0.00
2022-12-05T02:16:36.507Z,0.00
2022-12-05T02:17:36.422Z,0.00
2022-12-05T02:18:36.412Z,0.00
2022-12-05T02:19:36.427Z,0.00
2022-12-05T02:20:36.479Z,0.00
2022-12-05T02:21:36.407Z,0.00
2022-12-05T02:22:36.371Z,0.00
2022-12-05T02:23:36.395Z,0.00
2022-12-05T02:24:36.428Z,0.00
2022-12-05T02:25:36.407Z,0.00
2022-12-05T02:26:36.343Z,0.00
2022-12-05T02:27:36.310Z,0.00
2022-12-05T02:28:36.377Z,0.00
2022-12-05T02:29:36.304Z,0.00
2022-12-05T02:30:36.334Z,0.00
2022-12-05T02:31:36.372Z,0.00
2022-12-05T02:32:36.301Z,0.00
2022-12-05T02:33:36.259Z,0.00
2022-12-05T02:34:36.278Z,0.00
2022-12-05T02:35:36.306Z,0.00
2022-12-05T02:36:36.272Z,0.00
2022-12-05T02:37:36.279Z,0.00
2022-12-05T02:38:36.226Z,0.00
2022-12-05T02:39:36.222Z,0.00
2022-12-05T02:40:36.217Z,0.00
2022-12-05T02:41:36.180Z,0.00
2022-12-05T02:42:36.450Z,0.00
2022-12-05T02:43:36.197Z,0.00
2022-12-05T02:44:36.156Z,0.00
2022-12-05T02:45:36.302Z,0.00
2022-12-05T02:46:36.425Z,0.00
2022-12-05T02:47:36.187Z,0.00
2022-12-05T02:48:36.153Z,0.00
2022-12-05T02:49:36.126Z,0.00
2022-12-05T02:50:36.133Z,0.00
2022-12-05T02:51:36.128Z,0.00
2022-12-05T02:52:36.109Z,0.00
2022-12-05T02:53:36.079Z,0.00
2022-12-05T02:54:36.101Z,0.00
2022-12-05T02:55:36.095Z,0.00
2022-12-05T02:56:36.586Z,0.00
2022-12-05T02:57:36.053Z,0.00
2022-12-05T02:58:36.033Z,0.00
2022-12-05T02:59:36.092Z,0.00
2022-12-05T03:00:36.018Z,0.00
2022-12-05T03:01:36.125Z,0.00
2022-12-05T03:02:35.978Z,0.00
2022-12-05T03:03:35.979Z,0.00
2022-12-05T03:04:36.110Z,0.00
2022-12-05T03:05:35.976Z,0.00
2022-12-05T03:06:35.933Z,0.00
2022-12-05T03:07:36.024Z,0.00
2022-12-05T03:08:35.931Z,0.00
2022-12-05T03:09:35.957Z,0.00
2022-12-05T03:10:35.910Z,0.00
2022-12-05T03:11:35.899Z,0.00
2022-12-05T03:12:35.923Z,0.00
2022-12-05T03:13:35.916Z,0.00
2022-12-05T03:14:35.908Z,0.00
2022-12-05T03:15:35.859Z,0.00
2022-12-05T03:16:36.003Z,0.00
2022-12-05T03:17:35.859Z,0.00
2022-12-05T03:18:35.829Z,0.00
2022-12-05T03:19:35.832Z,0.00
2022-12-05T03:20:35.869Z,0.00
2022-12-05T03:21:35.830Z,0.00
2022-12-05T03:22:35.782Z,0.00
2022-12-05T03:23:35.778Z,0.00
2022-12-05T03:24:35.801Z,0.00
2022-12-05T03:25:36.613Z,0.00
2022-12-05T03:26:35.769Z,0.00
2022-12-05T03:27:35.729Z,0.00
2022-12-05T03:28:35.739Z,0.00
2022-12-05T03:29:35.730Z,0.00
2022-12-05T03:30:35.762Z,0.00
2022-12-05T03:31:35.724Z,0.00
2022-12-05T03:32:35.717Z,0.00
2022-12-05T03:33:35.952Z,1.00
2022-12-05T03:34:35.666Z,0.00
2022-12-05T03:35:35.684Z,0.00
2022-12-05T03:36:35.687Z,0.00
2022-12-05T03:37:35.664Z,0.00
2022-12-05T03:38:35.622Z,0.00
2022-12-05T03:39:35.614Z,0.00
2022-12-05T03:40:35.657Z,0.00
2022-12-05T03:41:35.599Z,0.00
2022-12-05T03:42:35.624Z,0.00
2022-12-05T03:43:35.593Z,0.00
2022-12-05T03:44:35.624Z,0.00
2022-12-05T03:45:35.627Z,0.00
2022-12-05T03:46:35.971Z,0.00
2022-12-05T03:47:35.531Z,0.00
2022-12-05T03:48:35.525Z,0.00
2022-12-05T03:49:35.543Z,0.00
2022-12-05T03:50:35.505Z,0.00
2022-12-05T03:51:35.496Z,0.00
2022-12-05T03:52:51.255Z,0.00
2022-12-05T03:53:35.515Z,0.00
2022-12-05T03:54:35.478Z,0.00
2022-12-05T03:55:35.503Z,0.00
2022-12-05T03:56:35.459Z,0.00
2022-12-05T03:57:35.466Z,0.00
2022-12-05T03:58:35.461Z,0.00
2022-12-05T03:59:35.427Z,0.00
2022-12-05T04:00:35.409Z,0.00
2022-12-05T04:01:35.791Z,0.00
2022-12-05T04:02:35.429Z,0.00
2022-12-05T04:03:35.456Z,0.00
2022-12-05T04:04:35.371Z,0.00
2022-12-05T04:05:35.386Z,0.00
2022-12-05T04:06:35.398Z,0.00
2022-12-05T04:07:35.382Z,0.00
2022-12-05T04:08:35.401Z,0.00
2022-12-05T04:09:35.340Z,0.00
2022-12-05T04:10:35.632Z,0.00
2022-12-05T04:11:35.300Z,0.00
2022-12-05T04:12:35.310Z,0.00
2022-12-05T04:13:35.304Z,0.00
2022-12-05T04:14:35.291Z,0.00
2022-12-05T04:15:35.338Z,0.00
2022-12-05T04:16:35.327Z,0.00
2022-12-05T04:17:35.251Z,0.00
2022-12-05T04:18:35.269Z,0.00
2022-12-05T04:19:35.211Z,0.00
2022-12-05T04:20:35.211Z,0.00
2022-12-05T04:21:35.205Z,0.00
2022-12-05T04:22:35.212Z,0.00
2022-12-05T04:23:35.294Z,0.00
2022-12-05T04:24:35.218Z,0.00
2022-12-05T04:25:35.190Z,0.00
2022-12-05T04:26:36.093Z,0.00
2022-12-05T04:27:35.146Z,0.00
2022-12-05T04:28:35.129Z,0.00
2022-12-05T04:29:35.117Z,0.00
2022-12-05T04:30:36.871Z,1.00
2022-12-05T04:31:35.189Z,0.00
2022-12-05T04:32:35.144Z,0.00
2022-12-05T04:33:35.056Z,1.00
2022-12-05T04:34:35.094Z,0.00
2022-12-05T04:35:35.113Z,0.00
2022-12-05T04:36:35.092Z,0.00
2022-12-05T04:37:35.060Z,0.00
2022-12-05T04:38:35.023Z,0.00
2022-12-05T04:39:35.098Z,0.00
2022-12-05T04:40:35.032Z,0.00
2022-12-05T04:41:34.994Z,0.00
2022-12-05T04:42:35.014Z,0.00
2022-12-05T04:43:35.087Z,0.00
2022-12-05T04:44:35.013Z,0.00
2022-12-05T04:45:35.029Z,0.00
2022-12-05T04:46:35.281Z,0.00
2022-12-05T04:47:34.943Z,0.00
2022-12-05T04:48:34.986Z,0.00
2022-12-05T04:49:34.969Z,0.00
2022-12-05T04:50:34.935Z,0.00
2022-12-05T04:51:34.941Z,0.00
2022-12-05T04:52:34.928Z,0.00
2022-12-05T04:53:34.883Z,0.00
2022-12-05T04:54:34.875Z,0.00
2022-12-05T04:55:34.875Z,0.00
2022-12-05T04:56:34.908Z,0.00
2022-12-05T04:57:34.866Z,0.00
2022-12-05T04:58:34.834Z,0.00
2022-12-05T04:59:34.832Z,0.00
2022-12-05T05:00:34.830Z,0.00
2022-12-05T05:01:34.930Z,0.00
2022-12-05T05:02:34.898Z,0.00
2022-12-05T05:03:34.779Z,0.00
2022-12-05T05:04:34.791Z,0.00
2022-12-05T05:05:34.774Z,0.00
2022-12-05T05:06:34.831Z,0.00
2022-12-05T05:07:34.801Z,0.00
2022-12-05T05:08:34.730Z,0.00
2022-12-05T05:09:34.742Z,0.00
2022-12-05T05:10:34.720Z,0.00
2022-12-05T05:11:34.747Z,0.00
2022-12-05T05:12:34.719Z,0.00
2022-12-05T05:13:34.702Z,0.00
2022-12-05T05:14:34.937Z,0.00
2022-12-05T05:15:34.873Z,0.00
2022-12-05T05:16:35.268Z,0.00
2022-12-05T05:17:34.648Z,0.00
2022-12-05T05:18:34.635Z,0.00
2022-12-05T05:19:34.632Z,0.00
2022-12-05T05:20:34.625Z,0.00
2022-12-05T05:21:34.940Z,0.00
2022-12-05T05:22:34.624Z,0.00
2022-12-05T05:23:34.588Z,0.00
2022-12-05T05:24:34.607Z,0.00
2022-12-05T05:25:34.643Z,0.00
2022-12-05T05:26:34.603Z,0.00
2022-12-05T05:27:34.558Z,0.00
2022-12-05T05:28:34.573Z,0.00
2022-12-05T05:29:34.534Z,0.00
2022-12-05T05:30:34.545Z,0.00
2022-12-05T05:31:34.567Z,0.00
2022-12-05T05:32:34.569Z,0.00
2022-12-05T05:33:34.531Z,0.00
2022-12-05T05:34:34.437Z,1.00
2022-12-05T05:35:34.493Z,0.00
2022-12-05T05:36:34.473Z,0.00
2022-12-05T05:37:35.152Z,0.00
2022-12-05T05:38:34.441Z,0.00
2022-12-05T05:39:34.426Z,1.00
2022-12-05T05:40:34.719Z,0.00
2022-12-05T05:41:34.434Z,0.00
2022-12-05T05:42:34.427Z,0.00
2022-12-05T05:43:34.406Z,0.00
2022-12-05T05:44:34.414Z,0.00
2022-12-05T05:45:34.384Z,0.00
2022-12-05T05:46:34.326Z,1.00
2022-12-05T05:47:35.246Z,0.00
2022-12-05T05:48:34.339Z,0.00
2022-12-05T05:49:34.316Z,1.00
2022-12-05T05:50:34.327Z,0.00
2022-12-05T05:51:34.310Z,0.00
2022-12-05T05:52:34.332Z,0.00
2022-12-05T05:53:34.311Z,1.00
2022-12-05T05:54:34.322Z,0.00
2022-12-05T05:55:34.317Z,0.00
2022-12-05T05:56:34.288Z,0.00
2022-12-05T05:57:34.828Z,0.00
2022-12-05T05:58:34.275Z,0.00
2022-12-05T05:59:34.294Z,1.00
2022-12-05T06:00:34.221Z,0.00
2022-12-05T06:01:34.219Z,0.00
2022-12-05T06:02:34.340Z,0.00
2022-12-05T06:03:34.272Z,1.00
2022-12-05T06:04:34.215Z,0.00
2022-12-05T06:05:34.200Z,0.00
2022-12-05T06:06:34.506Z,0.00
2022-12-05T06:07:34.298Z,0.00
2022-12-05T06:08:34.176Z,0.00
2022-12-05T06:09:34.180Z,0.00
2022-12-05T06:10:34.202Z,0.00
2022-12-05T06:11:34.156Z,0.00
2022-12-05T06:12:34.367Z,1.00
2022-12-05T06:13:34.129Z,0.00
2022-12-05T06:14:34.162Z,0.00
2022-12-05T06:15:34.479Z,0.00
2022-12-05T06:16:34.115Z,1.00
2022-12-05T06:17:34.048Z,1.00
2022-12-05T06:18:34.104Z,0.00
2022-12-05T06:19:34.068Z,0.00
2022-12-05T06:20:34.042Z,0.00
2022-12-05T06:21:34.045Z,0.00
2022-12-05T06:22:33.954Z,1.00
2022-12-05T06:23:34.006Z,0.00
2022-12-05T06:24:34.052Z,0.00
2022-12-05T06:25:34.011Z,0.00
2022-12-05T06:26:34.083Z,0.00
2022-12-05T06:27:33.964Z,1.00
2022-12-05T06:28:34.033Z,0.00
2022-12-05T06:29:34.348Z,1.00
2022-12-05T06:30:34.187Z,0.00
2022-12-05T06:31:34.039Z,1.00
2022-12-05T06:32:33.960Z,0.00
2022-12-05T06:33:33.959Z,0.00
2022-12-05T06:34:33.966Z,0.00
2022-12-05T06:35:33.960Z,0.00
2022-12-05T06:36:33.977Z,0.00
2022-12-05T06:37:33.841Z,1.00
2022-12-05T06:38:35.988Z,1.00
2022-12-05T06:39:33.822Z,1.00
2022-12-05T06:40:33.900Z,0.00
2022-12-05T06:41:33.811Z,2.00
2022-12-05T06:42:33.774Z,2.00
2022-12-05T06:43:33.822Z,0.00
2022-12-05T06:44:33.838Z,0.00
2022-12-05T06:45:33.794Z,2.00
2022-12-05T06:46:34.562Z,1.00
2022-12-05T06:47:33.794Z,1.00
2022-12-05T06:48:33.716Z,1.00
2022-12-05T06:49:37.883Z,2.00
2022-12-05T06:50:33.684Z,1.00
2022-12-05T06:51:33.686Z,1.00
2022-12-05T06:52:33.679Z,3.00
2022-12-05T06:53:33.655Z,3.00
2022-12-05T06:54:33.652Z,4.00
2022-12-05T06:55:34.542Z,3.00
2022-12-05T06:56:33.664Z,7.00
2022-12-05T06:57:33.652Z,6.00
2022-12-05T06:58:33.636Z,5.00
2022-12-05T06:59:33.673Z,4.00
2022-12-05T07:00:33.577Z,5.00
2022-12-05T07:01:33.687Z,9.00
2022-12-05T07:02:33.608Z,11.00
2022-12-05T07:03:33.558Z,12.00
2022-12-05T07:04:33.561Z,13.00
2022-12-05T07:05:33.541Z,15.00
2022-12-05T07:06:33.630Z,19.00
2022-12-05T07:07:33.627Z,17.00
2022-12-05T07:08:33.544Z,19.00
2022-12-05T07:09:33.499Z,23.00
2022-12-05T07:10:33.610Z,25.00
2022-12-05T07:11:33.503Z,27.00
2022-12-05T07:12:33.485Z,24.00
2022-12-05T07:13:34.015Z,25.00
2022-12-05T07:14:50.163Z,24.00
2022-12-05T07:15:33.463Z,22.00
2022-12-05T07:16:34.154Z,23.00
2022-12-05T07:17:33.442Z,29.00
2022-12-05T07:18:33.443Z,27.00
2022-12-05T07:19:33.419Z,36.00
2022-12-05T07:21:03.578Z,34.00
2022-12-05T07:21:33.377Z,32.00
2022-12-05T07:22:33.397Z,30.00
2022-12-05T07:23:33.345Z,40.00
2022-12-05T07:24:33.360Z,42.00
2022-12-05T07:25:33.349Z,51.00
2022-12-05T07:26:33.321Z,63.00
2022-12-05T07:27:33.358Z,64.00
2022-12-05T07:28:33.336Z,65.00
2022-12-05T07:29:33.287Z,65.00
2022-12-05T07:30:33.279Z,63.00
2022-12-05T07:31:33.360Z,60.00
2022-12-05T07:32:33.567Z,65.00
2022-12-05T07:33:33.244Z,71.00
2022-12-05T07:34:33.276Z,83.00
2022-12-05T07:35:33.238Z,73.00
2022-12-05T07:36:33.275Z,76.00
2022-12-05T07:37:34.003Z,78.00
2022-12-05T07:38:33.253Z,78.00
2022-12-05T07:39:33.247Z,79.00
2022-12-05T07:40:33.218Z,82.00
2022-12-05T07:41:33.194Z,74.00
2022-12-05T07:42:33.155Z,68.00
2022-12-05T07:43:33.154Z,69.00
2022-12-05T07:44:33.170Z,69.00
2022-12-05T07:45:33.262Z,63.00
2022-12-05T07:46:33.137Z,61.00
2022-12-05T07:47:33.249Z,59.00
2022-12-05T07:48:33.129Z,56.00
2022-12-05T07:49:33.234Z,69.00
2022-12-05T07:50:33.074Z,82.00
2022-12-05T07:51:33.318Z,92.00
2022-12-05T07:52:33.077Z,85.00
2022-12-05T07:53:33.069Z,71.00
2022-12-05T07:54:33.036Z,75.00
2022-12-05T07:55:33.040Z,92.00
2022-12-05T07:56:33.029Z,118.00
2022-12-05T07:57:33.054Z,136.00
2022-12-05T07:58:33.002Z,133.00
2022-12-05T07:59:33.025Z,137.00
2022-12-05T08:00:33.040Z,148.00
2022-12-05T08:01:33.106Z,148.00
2022-12-05T08:02:33.124Z,153.00
2022-12-05T08:03:33.257Z,152.00
2022-12-05T08:04:32.949Z,164.00
2022-12-05T08:05:32.939Z,176.00
2022-12-05T08:06:32.930Z,154.00
2022-12-05T08:07:32.971Z,126.00
2022-12-05T08:08:32.898Z,124.00
2022-12-05T08:09:32.991Z,126.00
2022-12-05T08:10:32.908Z,144.00
2022-12-05T08:11:32.874Z,148.00
2022-12-05T08:12:32.865Z,113.00
2022-12-05T08:13:32.849Z,102.00
2022-12-05T08:14:32.884Z,83.00
2022-12-05T08:15:32.870Z,94.00
2022-12-05T08:16:32.904Z,86.00
2022-12-05T08:17:32.818Z,90.00
2022-12-05T08:18:32.813Z,97.00
2022-12-05T08:19:32.820Z,97.00
2022-12-05T08:20:32.803Z,101.00
2022-12-05T08:21:32.797Z,123.00
2022-12-05T08:22:32.763Z,167.00
2022-12-05T08:23:32.831Z,178.00
2022-12-05T08:24:32.746Z,198.00
2022-12-05T08:25:32.754Z,224.00
2022-12-05T08:26:32.720Z,243.00
2022-12-05T08:27:32.713Z,192.00
2022-12-05T08:28:32.726Z,152.00
2022-12-05T08:29:32.711Z,120.00
2022-12-05T08:30:32.795Z,117.00
2022-12-05T08:31:32.698Z,116.00
2022-12-05T08:32:32.677Z,133.00
2022-12-05T08:33:32.657Z,139.00
2022-12-05T08:34:32.661Z,147.00
2022-12-05T08:35:32.628Z,157.00
2022-12-05T08:36:32.681Z,169.00
2022-12-05T08:37:32.643Z,188.00
2022-12-05T08:38:32.617Z,188.00
2022-12-05T08:39:37.982Z,168.00
2022-12-05T08:40:32.596Z,181.00
2022-12-05T08:41:32.589Z,179.00
2022-12-05T08:42:32.612Z,162.00
2022-12-05T08:43:32.559Z,149.00
2022-12-05T08:44:32.573Z,154.00
2022-12-05T08:45:32.571Z,151.00
2022-12-05T08:46:32.581Z,142.00
2022-12-05T08:47:32.712Z,149.00
2022-12-05T08:48:32.528Z,150.00
2022-12-05T08:49:32.538Z,141.00
2022-12-05T08:50:32.530Z,139.00
2022-12-05T08:51:32.512Z,144.00
2022-12-05T08:52:32.488Z,130.00
2022-12-05T08:53:32.496Z,131.00
2022-12-05T08:54:32.447Z,134.00
2022-12-05T08:55:32.449Z,138.00
2022-12-05T08:56:32.484Z,148.00
2022-12-05T08:57:32.430Z,155.00
2022-12-05T08:58:32.478Z,173.00
2022-12-05T08:59:32.391Z,168.00
2022-12-05T09:00:32.464Z,172.00
2022-12-05T09:01:32.429Z,182.00
2022-12-05T09:02:32.428Z,182.00
2022-12-05T09:03:32.391Z,172.00
2022-12-05T09:04:32.400Z,173.00
2022-12-05T09:05:32.813Z,173.00
2022-12-05T09:06:32.346Z,182.00
2022-12-05T09:07:32.347Z,208.00
2022-12-05T09:08:32.339Z,229.00
2022-12-05T09:09:32.428Z,257.00
2022-12-05T09:10:34.266Z,283.00
2022-12-05T09:11:32.533Z,266.00
2022-12-05T09:12:32.424Z,215.00
2022-12-05T09:13:32.261Z,201.00
2022-12-05T09:14:32.278Z,199.00
2022-12-05T09:15:32.329Z,233.00
2022-12-05T09:16:37.093Z,246.00
2022-12-05T09:17:32.222Z,270.00
2022-12-05T09:18:32.216Z,278.00
2022-12-05T09:19:32.193Z,239.00
2022-12-05T09:20:32.515Z,234.00
2022-12-05T09:21:32.388Z,305.00
2022-12-05T09:22:33.262Z,375.00
2022-12-05T09:23:32.180Z,399.00
2022-12-05T09:24:32.326Z,382.00
2022-12-05T09:25:32.129Z,385.00
2022-12-05T09:26:32.241Z,412.00
2022-12-05T09:27:32.741Z,415.00
2022-12-05T09:28:33.515Z,435.00
2022-12-05T09:29:32.184Z,429.00
2022-12-05T09:30:32.149Z,433.00
2022-12-05T09:31:32.257Z,426.00
2022-12-05T09:32:32.088Z,384.00
2022-12-05T09:33:32.114Z,366.00
2022-12-05T09:34:32.127Z,306.00
2022-12-05T09:35:32.702Z,311.00
2022-12-05T09:36:33.545Z,277.00
2022-12-05T09:37:40.177Z,260.00
2022-12-05T09:38:32.088Z,261.00
2022-12-05T09:39:32.797Z,279.00
2022-12-05T09:40:33.390Z,326.00
2022-12-05T09:41:31.981Z,352.00
2022-12-05T09:42:32.122Z,375.00
2022-12-05T09:43:31.964Z,348.00
2022-12-05T09:44:32.328Z,307.00
2022-12-05T09:45:31.974Z,288.00
2022-12-05T09:46:35.573Z,251.00
2022-12-05T09:47:31.999Z,224.00
2022-12-05T09:48:31.910Z,242.00
2022-12-05T09:49:31.970Z,252.00
2022-12-05T09:50:31.914Z,257.00
2022-12-05T09:51:32.067Z,274.00
2022-12-05T09:52:33.565Z,277.00
2022-12-05T09:53:31.888Z,283.00
2022-12-05T09:54:31.873Z,285.00
2022-12-05T09:55:31.996Z,290.00
2022-12-05T09:56:31.839Z,303.00
2022-12-05T09:57:33.884Z,302.00
2022-12-05T09:58:32.685Z,281.00
2022-12-05T09:59:32.816Z,275.00
2022-12-05T10:00:32.293Z,272.00
2022-12-05T10:01:31.967Z,304.00
2022-12-05T10:02:31.780Z,318.00
2022-12-05T10:03:33.171Z,343.00
2022-12-05T10:04:31.962Z,348.00
2022-12-05T10:05:33.756Z,334.00
2022-12-05T10:06:31.885Z,334.00
2022-12-05T10:07:32.516Z,322.00
2022-12-05T10:08:31.821Z,324.00
2022-12-05T10:09:31.761Z,369.00
2022-12-05T10:10:31.737Z,403.00
2022-12-05T10:11:31.686Z,427.00
2022-12-05T10:12:31.778Z,436.00
2022-12-05T10:13:31.695Z,414.00
2022-12-05T10:14:31.841Z,403.00
2022-12-05T10:15:31.916Z,394.00
2022-12-05T10:16:33.618Z,388.00
2022-12-05T10:17:31.639Z,382.00
2022-12-05T10:18:31.870Z,373.00
2022-12-05T10:19:31.668Z,348.00
2022-12-05T10:20:31.611Z,327.00
2022-12-05T10:21:31.591Z,374.00
2022-12-05T10:22:31.596Z,413.00
2022-12-05T10:23:56.452Z,431.00
2022-12-05T10:24:31.799Z,400.00
2022-12-05T10:25:31.570Z,372.00
2022-12-05T10:26:31.660Z,348.00
2022-12-05T10:27:36.747Z,314.00
2022-12-05T10:28:31.522Z,331.00
2022-12-05T10:29:31.639Z,378.00
2022-12-05T10:30:31.514Z,439.00
2022-12-05T10:31:31.625Z,498.00
2022-12-05T10:32:31.518Z,509.00
2022-12-05T10:33:31.548Z,527.00
2022-12-05T10:34:31.883Z,562.00
2022-12-05T10:35:31.681Z,592.00
2022-12-05T10:36:31.471Z,563.00
2022-12-05T10:37:31.415Z,466.00
2022-12-05T10:38:31.608Z,420.00
2022-12-05T10:39:32.743Z,387.00
2022-12-05T10:40:31.532Z,342.00
2022-12-05T10:41:32.168Z,293.00
2022-12-05T10:42:31.915Z,272.00
2022-12-05T10:43:32.266Z,274.00
2022-12-05T10:44:33.219Z,278.00
2022-12-05T10:45:31.380Z,263.00
2022-12-05T10:46:31.389Z,255.00
2022-12-05T10:47:31.323Z,251.00
2022-12-05T10:48:31.322Z,257.00
2022-12-05T10:49:31.300Z,267.00
2022-12-05T10:50:32.695Z,276.00
2022-12-05T10:51:37.489Z,289.00
2022-12-05T10:52:31.730Z,320.00
2022-12-05T10:53:31.273Z,337.00
2022-12-05T10:54:31.295Z,338.00
2022-12-05T10:55:31.272Z,331.00
2022-12-05T10:56:31.380Z,365.00
2022-12-05T10:57:31.243Z,388.00
2022-12-05T10:58:31.742Z,367.00
2022-12-05T10:59:33.191Z,352.00
2022-12-05T11:00:31.215Z,346.00
2022-12-05T11:01:31.262Z,350.00
2022-12-05T11:02:31.300Z,368.00
2022-12-05T11:03:31.977Z,366.00
2022-12-05T11:04:31.274Z,369.00
2022-12-05T11:05:32.436Z,346.00
2022-12-05T11:06:31.315Z,335.00
2022-12-05T11:07:31.239Z,331.00
2022-12-05T11:09:02.551Z,322.00
2022-12-05T11:09:31.135Z,323.00
2022-12-05T11:10:31.352Z,323.00
2022-12-05T11:11:31.121Z,306.00
2022-12-05T11:12:31.123Z,288.00
2022-12-05T11:13:31.069Z,271.00
2022-12-05T11:14:31.070Z,256.00
2022-12-05T11:15:31.061Z,247.00
2022-12-05T11:16:31.087Z,247.00
2022-12-05T11:17:31.052Z,258.00
2022-12-05T11:18:31.074Z,258.00
2022-12-05T11:19:31.009Z,261.00
2022-12-05T11:20:30.993Z,293.00
2022-12-05T11:21:30.993Z,304.00
2022-12-05T11:22:31.000Z,320.00
2022-12-05T11:23:30.993Z,325.00
2022-12-05T11:24:31.023Z,344.00
2022-12-05T11:25:30.948Z,332.00
2022-12-05T11:26:30.938Z,334.00
2022-12-05T11:27:30.992Z,272.00
2022-12-05T11:28:30.962Z,257.00
2022-12-05T11:29:30.925Z,249.00
2022-12-05T11:30:30.915Z,262.00
2022-12-05T11:31:30.944Z,280.00
2022-12-05T11:32:30.874Z,279.00
2022-12-05T11:33:30.898Z,248.00
2022-12-05T11:34:30.877Z,221.00
2022-12-05T11:35:30.868Z,208.00
2022-12-05T11:36:30.846Z,258.00
2022-12-05T11:37:30.830Z,290.00
2022-12-05T11:38:30.826Z,330.00
2022-12-05T11:39:30.836Z,354.00
2022-12-05T11:40:35.221Z,319.00
2022-12-05T11:41:30.798Z,299.00
2022-12-05T11:42:30.782Z,297.00
2022-12-05T11:43:30.771Z,301.00
2022-12-05T11:44:30.782Z,322.00
2022-12-05T11:45:30.772Z,341.00
2022-12-05T11:46:30.779Z,309.00
2022-12-05T11:47:30.737Z,264.00
2022-12-05T11:48:30.769Z,226.00
2022-12-05T11:49:30.746Z,212.00
2022-12-05T11:50:30.807Z,231.00
2022-12-05T11:51:30.720Z,240.00
2022-12-05T11:52:32.780Z,241.00
2022-12-05T11:53:30.999Z,223.00
2022-12-05T11:55:03.252Z,226.00
2022-12-05T11:55:30.734Z,301.00
2022-12-05T11:56:30.666Z,322.00
2022-12-05T11:57:30.637Z,311.00
2022-12-05T11:58:30.663Z,334.00
2022-12-05T11:59:30.661Z,346.00
2022-12-05T12:00:30.643Z,372.00
2022-12-05T12:01:30.652Z,375.00
2022-12-05T12:02:30.648Z,371.00
2022-12-05T12:03:33.610Z,416.00
2022-12-05T12:04:30.607Z,476.00
2022-12-05T12:05:30.560Z,517.00
2022-12-05T12:06:32.171Z,506.00
2022-12-05T12:07:30.599Z,498.00
2022-12-05T12:08:30.539Z,422.00
2022-12-05T12:09:30.533Z,374.00
2022-12-05T12:10:30.516Z,373.00
2022-12-05T12:11:30.495Z,347.00
2022-12-05T12:12:30.511Z,327.00
2022-12-05T12:13:30.513Z,326.00
2022-12-05T12:14:30.471Z,358.00
2022-12-05T12:15:30.457Z,365.00
2022-12-05T12:16:30.524Z,357.00
2022-12-05T12:17:30.436Z,337.00
2022-12-05T12:18:30.428Z,340.00
2022-12-05T12:19:30.437Z,355.00
2022-12-05T12:20:33.249Z,353.00
2022-12-05T12:21:35.385Z,362.00
2022-12-05T12:22:30.407Z,351.00
2022-12-05T12:23:30.427Z,324.00
2022-12-05T12:24:30.395Z,316.00
2022-12-05T12:25:30.358Z,366.00
2022-12-05T12:26:30.378Z,390.00
2022-12-05T12:27:30.358Z,392.00
2022-12-05T12:28:30.336Z,397.00
2022-12-05T12:29:30.328Z,388.00
2022-12-05T12:30:30.347Z,371.00
2022-12-05T12:31:30.379Z,332.00
2022-12-05T12:32:30.297Z,280.00
2022-12-05T12:33:30.331Z,253.00
2022-12-05T12:34:30.321Z,241.00
2022-12-05T12:35:30.342Z,215.00
2022-12-05T12:36:30.261Z,239.00
2022-12-05T12:37:30.305Z,263.00
2022-12-05T12:38:30.235Z,307.00
2022-12-05T12:39:30.284Z,341.00
2022-12-05T12:40:30.353Z,352.00
2022-12-05T12:41:30.225Z,341.00
2022-12-05T12:42:30.226Z,353.00
2022-12-05T12:43:53.171Z,368.00
2022-12-05T12:44:30.244Z,367.00
2022-12-05T12:45:30.285Z,341.00
2022-12-05T12:46:30.235Z,304.00
2022-12-05T12:47:30.149Z,296.00
2022-12-05T12:48:30.134Z,289.00
2022-12-05T12:49:30.170Z,269.00
2022-12-05T12:50:30.217Z,262.00
2022-12-05T12:51:30.114Z,258.00
2022-12-05T12:52:30.110Z,253.00
2022-12-05T12:53:30.129Z,241.00
2022-12-05T12:54:55.167Z,237.00
2022-12-05T12:55:30.083Z,240.00
2022-12-05T12:56:30.119Z,235.00